Time,TemperatureF,DewpointF,PressureIn,WindDirection,WindDirectionDegrees,WindSpeedMPH,WindSpeedGustMPH,Humidity,HourlyPrecipIn,Conditions,Clouds,dailyrainin,SoftwareType,DateUTC
2013-11-07 00:01:00,54.1,51.6,30.35,NW,315,1.6,2.2,91,0.00,,,0.00,pywws,2013-11-07 05:01:00,
2013-11-07 00:02:00,54.0,51.4,30.35,West,270,2.2,3.1,91,0.00,,,0.00,pywws,2013-11-07 05:02:00,
2013-11-07 00:03:00,54.0,51.4,30.35,West,270,1.6,2.2,91,0.00,,,0.00,pywws,2013-11-07 05:03:00,
2013-11-07 00:05:00,54.0,51.4,30.35,NW,315,0.0,1.6,91,0.00,,,0.00,pywws,2013-11-07 05:05:00,
2013-11-07 00:06:00,54.0,51.4,30.35,West,270,0.7,2.2,91,0.00,,,0.00,pywws,2013-11-07 05:06:00,
2013-11-07 00:12:00,53.8,51.2,30.35,SW,225,1.6,2.2,91,0.00,,,0.00,pywws,2013-11-07 05:12:00,
2013-11-07 00:18:00,53.8,51.5,30.34,South,180,1.6,3.8,92,0.00,,,0.00,pywws,2013-11-07 05:18:00,
2013-11-07 00:23:00,53.8,51.5,30.34,SW,225,2.2,4.5,92,0.00,,,0.00,pywws,2013-11-07 05:23:00,
2013-11-07 00:29:00,53.8,51.5,30.34,SW,225,1.6,3.1,92,0.00,,,0.00,pywws,2013-11-07 05:29:00,
2013-11-07 00:35:00,54.0,51.7,30.34,NE,45,3.1,5.4,92,0.00,,,0.00,pywws,2013-11-07 05:35:00,
2013-11-07 00:40:00,54.0,52.0,30.33,NE,45,2.2,5.4,93,0.00,,,0.00,pywws,2013-11-07 05:40:00,
2013-11-07 00:46:00,54.0,52.0,30.34,West,270,1.6,3.1,93,0.00,,,0.00,pywws,2013-11-07 05:46:00,
2013-11-07 00:51:00,53.8,51.8,30.33,NW,315,2.2,4.5,93,0.00,,,0.00,pywws,2013-11-07 05:51:00,
2013-11-07 00:57:00,53.8,51.8,30.33,West,270,1.6,2.2,93,0.00,,,0.00,pywws,2013-11-07 05:57:00,
2013-11-07 01:03:00,53.8,51.8,30.33,East,90,1.6,3.8,93,0.00,,,0.00,pywws,2013-11-07 06:03:00,
2013-11-07 01:08:00,53.8,52.1,30.33,North,0,1.6,3.1,94,0.00,,,0.00,pywws,2013-11-07 06:08:00,
2013-11-07 01:14:00,53.8,52.1,30.33,East,90,1.6,3.1,94,0.00,,,0.00,pywws,2013-11-07 06:14:00,
2013-11-07 01:19:00,53.6,51.9,30.33,NW,315,3.8,6.0,94,0.00,,,0.00,pywws,2013-11-07 06:19:00,
2013-11-07 01:25:00,53.8,52.1,30.33,West,270,2.2,3.1,94,0.00,,,0.00,pywws,2013-11-07 06:25:00,
2013-11-07 01:31:00,53.8,52.1,30.33,North,0,3.1,6.0,94,0.00,,,0.00,pywws,2013-11-07 06:31:00,
2013-11-07 01:36:00,53.8,52.1,30.32,East,90,1.6,3.1,94,0.00,,,0.00,pywws,2013-11-07 06:36:00,
2013-11-07 01:42:00,53.8,52.4,30.32,SE,135,1.6,3.1,95,0.00,,,0.00,pywws,2013-11-07 06:42:00,
2013-11-07 01:48:00,54.0,52.6,30.32,NW,315,0.7,2.2,95,0.00,,,0.00,pywws,2013-11-07 06:48:00,
2013-11-07 01:54:00,54.0,52.6,30.32,West,270,1.6,2.2,95,0.00,,,0.00,pywws,2013-11-07 06:54:00,
2013-11-07 01:59:00,54.0,52.6,30.32,SW,225,1.6,3.1,95,0.00,,,0.00,pywws,2013-11-07 06:59:00,
2013-11-07 02:05:00,54.1,52.7,30.31,NW,315,1.6,3.1,95,0.00,,,0.00,pywws,2013-11-07 07:05:00,
2013-11-07 02:11:00,54.3,52.9,30.31,South,180,3.1,4.5,95,0.00,,,0.00,pywws,2013-11-07 07:11:00,
2013-11-07 02:16:00,54.5,53.1,30.31,North,0,3.1,5.4,95,0.00,,,0.00,pywws,2013-11-07 07:16:00,
2013-11-07 02:22:00,54.7,53.3,30.31,NW,315,1.6,2.2,95,0.00,,,0.00,pywws,2013-11-07 07:22:00,
2013-11-07 02:28:00,54.7,53.3,30.30,North,0,3.1,5.4,95,0.00,,,0.00,pywws,2013-11-07 07:28:00,
2013-11-07 02:34:00,55.0,53.6,30.30,West,270,3.1,5.4,95,0.00,,,0.00,pywws,2013-11-07 07:34:00,
2013-11-07 02:39:00,55.0,53.6,30.29,SW,225,3.8,6.0,95,0.00,,,0.00,pywws,2013-11-07 07:39:00,
2013-11-07 02:45:00,55.2,53.8,30.29,East,90,1.6,3.8,95,0.00,,,0.00,pywws,2013-11-07 07:45:00,
2013-11-07 02:51:00,55.4,54.0,30.29,West,270,1.6,2.2,95,0.00,,,0.00,pywws,2013-11-07 07:51:00,
2013-11-07 02:56:00,55.6,54.2,30.29,West,270,3.1,5.4,95,0.00,,,0.00,pywws,2013-11-07 07:56:00,
2013-11-07 03:02:00,55.6,54.2,30.29,NW,315,2.2,3.1,95,0.00,,,0.00,pywws,2013-11-07 08:02:00,
2013-11-07 03:07:00,55.9,54.5,30.28,SE,135,1.6,2.2,95,0.00,,,0.00,pywws,2013-11-07 08:07:00,
2013-11-07 03:13:00,56.1,54.7,30.29,NW,315,2.2,3.8,95,0.00,,,0.00,pywws,2013-11-07 08:13:00,
2013-11-07 03:19:00,56.1,55.0,30.28,North,0,2.2,3.1,96,0.00,,,0.00,pywws,2013-11-07 08:19:00,
2013-11-07 03:24:00,56.1,55.0,30.28,West,270,3.1,6.0,96,0.00,,,0.00,pywws,2013-11-07 08:24:00,
2013-11-07 03:30:00,56.1,55.0,30.27,NW,315,3.8,5.4,96,0.00,,,0.00,pywws,2013-11-07 08:30:00,
2013-11-07 03:35:00,56.1,55.0,30.28,NW,315,3.8,6.0,96,0.00,,,0.00,pywws,2013-11-07 08:35:00,
2013-11-07 03:41:00,56.3,55.2,30.27,South,180,2.2,7.6,96,0.00,,,0.00,pywws,2013-11-07 08:41:00,
2013-11-07 03:47:00,56.3,55.2,30.27,West,270,2.2,4.5,96,0.00,,,0.00,pywws,2013-11-07 08:47:00,
2013-11-07 03:53:00,56.5,55.6,30.27,South,180,3.1,5.4,97,0.00,,,0.00,pywws,2013-11-07 08:53:00,
2013-11-07 03:59:00,56.5,55.6,30.27,WNW,292,3.8,6.0,97,0.00,,,0.00,pywws,2013-11-07 08:59:00,
2013-11-07 04:04:00,56.5,55.6,30.27,NW,315,2.2,3.8,97,0.00,,,0.00,pywws,2013-11-07 09:04:00,
2013-11-07 04:10:00,56.5,55.6,30.26,West,270,2.2,6.0,97,0.00,,,0.00,pywws,2013-11-07 09:10:00,
2013-11-07 04:15:00,56.5,55.6,30.26,NE,45,0.7,2.2,97,0.00,,,0.00,pywws,2013-11-07 09:15:00,
2013-11-07 04:21:00,56.5,55.6,30.25,WNW,292,4.5,9.8,97,0.00,,,0.00,pywws,2013-11-07 09:21:00,
2013-11-07 04:27:00,56.5,55.9,30.25,NW,315,2.2,4.5,98,0.00,,,0.00,pywws,2013-11-07 09:27:00,
2013-11-07 04:32:00,56.7,56.1,30.25,West,270,1.6,3.1,98,0.00,,,0.00,pywws,2013-11-07 09:32:00,
2013-11-07 04:38:00,56.7,56.1,30.24,SW,225,2.2,4.5,98,0.00,,,0.00,pywws,2013-11-07 09:38:00,
2013-11-07 04:43:00,56.5,55.9,30.24,NW,315,4.5,6.9,98,0.00,,,0.00,pywws,2013-11-07 09:43:00,
2013-11-07 04:49:00,56.5,55.9,30.24,NW,315,1.6,3.1,98,0.00,,,0.00,pywws,2013-11-07 09:49:00,
2013-11-07 04:55:00,56.7,56.1,30.24,South,180,1.6,3.1,98,0.00,,,0.00,pywws,2013-11-07 09:55:00,
2013-11-07 05:00:00,56.7,56.1,30.23,NW,315,3.1,4.5,98,0.00,,,0.00,pywws,2013-11-07 10:00:00,
2013-11-07 05:06:00,56.7,56.1,30.23,NW,315,3.1,4.5,98,0.00,,,0.00,pywws,2013-11-07 10:06:00,
2013-11-07 05:11:00,56.8,56.3,30.23,North,0,1.6,3.1,98,0.00,,,0.00,pywws,2013-11-07 10:11:00,
2013-11-07 05:17:00,56.8,56.3,30.23,SW,225,2.2,5.4,98,0.00,,,0.00,pywws,2013-11-07 10:17:00,
2013-11-07 05:23:00,57.0,56.5,30.22,SW,225,3.8,6.9,98,0.00,,,0.00,pywws,2013-11-07 10:23:00,
2013-11-07 05:28:00,57.0,56.2,30.22,NW,315,1.6,3.1,97,0.00,,,0.00,pywws,2013-11-07 10:28:00,
2013-11-07 05:34:00,57.2,56.1,30.21,North,0,3.8,7.6,96,0.00,,,0.00,pywws,2013-11-07 10:34:00,
2013-11-07 05:39:00,57.4,56.2,30.21,North,0,2.2,6.0,96,0.00,,,0.00,pywws,2013-11-07 10:39:00,
2013-11-07 05:45:00,57.6,56.4,30.21,SW,225,3.1,4.5,96,0.00,,,0.00,pywws,2013-11-07 10:45:00,
2013-11-07 05:51:00,57.7,56.6,30.20,North,0,1.6,3.1,96,0.00,,,0.00,pywws,2013-11-07 10:51:00,
2013-11-07 05:56:00,57.7,56.6,30.20,SW,225,3.1,4.5,96,0.00,,,0.00,pywws,2013-11-07 10:56:00,
2013-11-07 06:02:00,57.7,56.3,30.21,WSW,248,2.2,4.5,95,0.00,,,0.00,pywws,2013-11-07 11:02:00,
2013-11-07 06:08:00,57.7,56.3,30.21,West,270,3.1,6.9,95,0.00,,,0.00,pywws,2013-11-07 11:08:00,
2013-11-07 06:14:00,57.7,56.3,30.21,WNW,292,3.1,6.0,95,0.00,,,0.00,pywws,2013-11-07 11:14:00,
2013-11-07 06:19:00,57.6,56.1,30.21,North,0,1.6,4.5,95,0.00,,,0.00,pywws,2013-11-07 11:19:00,
2013-11-07 06:25:00,57.6,56.1,30.21,NW,315,2.2,4.5,95,0.00,,,0.00,pywws,2013-11-07 11:25:00,
2013-11-07 06:31:00,57.6,56.4,30.21,SW,225,3.8,6.0,96,0.00,,,0.00,pywws,2013-11-07 11:31:00,
2013-11-07 06:34:00,57.6,56.4,30.20,NW,315,1.6,2.2,96,0.00,,,0.00,pywws,2013-11-07 11:34:00,
2013-11-07 06:39:00,57.6,56.4,30.20,NW,315,1.6,3.1,96,0.00,,,0.00,pywws,2013-11-07 11:39:00,
2013-11-07 06:45:00,57.6,56.4,30.20,SE,135,2.2,3.8,96,0.00,,,0.00,pywws,2013-11-07 11:45:00,
2013-11-07 06:51:00,57.6,56.4,30.20,West,270,3.1,3.8,96,0.00,,,0.00,pywws,2013-11-07 11:51:00,
2013-11-07 06:56:00,57.6,56.4,30.19,North,0,3.1,5.4,96,0.00,,,0.00,pywws,2013-11-07 11:56:00,
2013-11-07 07:02:00,57.6,56.4,30.19,NW,315,3.8,6.0,96,0.00,,,0.00,pywws,2013-11-07 12:02:00,
2013-11-07 07:08:00,57.7,56.6,30.20,NNW,338,2.2,4.5,96,0.00,,,0.00,pywws,2013-11-07 12:08:00,
2013-11-07 07:14:00,57.9,56.8,30.20,WSW,248,2.2,4.5,96,0.00,,,0.00,pywws,2013-11-07 12:14:00,
2013-11-07 07:19:00,57.9,56.8,30.19,NW,315,2.2,4.5,96,0.00,,,0.00,pywws,2013-11-07 12:19:00,
2013-11-07 07:25:00,58.1,57.0,30.19,SW,225,2.2,5.4,96,0.00,,,0.00,pywws,2013-11-07 12:25:00,
2013-11-07 07:31:00,58.1,57.0,30.19,SW,225,2.2,4.5,96,0.00,,,0.00,pywws,2013-11-07 12:31:00,
2013-11-07 07:36:00,58.1,57.0,30.19,NE,45,3.1,5.4,96,0.00,,,0.00,pywws,2013-11-07 12:36:00,
2013-11-07 07:43:00,58.3,56.9,30.19,West,270,1.6,2.2,95,0.00,,,0.00,pywws,2013-11-07 12:43:00,
2013-11-07 07:48:00,58.5,57.0,30.20,West,270,1.6,3.1,95,0.00,,,0.00,pywws,2013-11-07 12:48:00,
2013-11-07 07:54:00,58.8,57.4,30.19,North,0,3.8,5.4,95,0.00,,,0.00,pywws,2013-11-07 12:54:00,
2013-11-07 07:59:00,58.8,57.1,30.19,NW,315,3.1,5.4,94,0.00,,,0.00,pywws,2013-11-07 12:59:00,
2013-11-07 08:05:00,59.2,56.9,30.19,South,180,2.2,3.8,92,0.00,,,0.00,pywws,2013-11-07 13:05:00,
2013-11-07 08:11:00,59.2,56.6,30.19,SW,225,1.6,2.2,91,0.00,,,0.00,pywws,2013-11-07 13:11:00,
2013-11-07 08:16:00,59.4,56.7,30.19,West,270,4.5,6.9,91,0.00,,,0.00,pywws,2013-11-07 13:16:00,
2013-11-07 08:22:00,59.5,56.3,30.19,NW,315,1.6,3.8,89,0.00,,,0.00,pywws,2013-11-07 13:22:00,
2013-11-07 08:28:00,59.7,56.2,30.19,SW,225,3.1,5.4,88,0.00,,,0.00,pywws,2013-11-07 13:28:00,
2013-11-07 08:34:00,59.7,56.2,30.19,NW,315,5.4,7.6,88,0.00,,,0.00,pywws,2013-11-07 13:34:00,
2013-11-07 08:39:00,59.9,56.0,30.19,North,0,1.6,3.1,87,0.00,,,0.00,pywws,2013-11-07 13:39:00,
2013-11-07 08:45:00,60.1,55.9,30.19,West,270,3.8,6.0,86,0.00,,,0.00,pywws,2013-11-07 13:45:00,
2013-11-07 08:51:00,60.3,56.1,30.19,North,0,1.6,3.1,86,0.00,,,0.00,pywws,2013-11-07 13:51:00,
2013-11-07 08:56:00,60.3,55.7,30.18,NW,315,3.1,6.9,85,0.00,,,0.00,pywws,2013-11-07 13:56:00,
2013-11-07 09:02:00,60.3,55.7,30.18,NW,315,3.1,4.5,85,0.00,,,0.00,pywws,2013-11-07 14:02:00,
2013-11-07 09:07:00,60.1,55.6,30.18,SW,225,1.6,4.5,85,0.00,,,0.00,pywws,2013-11-07 14:07:00,
2013-11-07 09:13:00,60.1,55.6,30.18,SW,225,1.6,3.1,85,0.00,,,0.00,pywws,2013-11-07 14:13:00,
2013-11-07 09:19:00,59.9,55.4,30.17,NW,315,4.5,6.9,85,0.00,,,0.00,pywws,2013-11-07 14:19:00,
2013-11-07 09:24:00,59.9,55.4,30.18,West,270,1.6,2.2,85,0.00,,,0.00,pywws,2013-11-07 14:24:00,
2013-11-07 09:30:00,59.7,55.2,30.17,NW,315,1.6,3.1,85,0.00,,,0.00,pywws,2013-11-07 14:30:00,
2013-11-07 09:35:00,59.7,55.5,30.17,South,180,3.1,6.9,86,0.00,,,0.00,pywws,2013-11-07 14:35:00,
2013-11-07 09:41:00,59.4,55.5,30.17,NW,315,1.6,3.1,87,0.00,,,0.00,pywws,2013-11-07 14:41:00,
2013-11-07 09:47:00,59.0,55.4,30.16,North,0,1.6,3.1,88,0.00,,,0.00,pywws,2013-11-07 14:47:00,
2013-11-07 09:53:00,58.6,55.7,30.17,NW,315,1.6,2.2,90,0.00,,,0.00,pywws,2013-11-07 14:53:00,
2013-11-07 09:59:00,58.3,55.7,30.17,North,0,2.2,3.8,91,0.00,,,0.00,pywws,2013-11-07 14:59:00,
2013-11-07 10:04:00,58.1,56.1,30.17,North,0,0.7,2.2,93,0.00,,,0.00,pywws,2013-11-07 15:04:00,
2013-11-07 10:10:00,57.9,56.2,30.17,NW,315,0.0,0.7,94,0.00,,,0.00,pywws,2013-11-07 15:10:00,
2013-11-07 10:15:00,57.7,56.0,30.17,SW,225,0.0,1.6,94,0.00,,,0.00,pywws,2013-11-07 15:15:00,
2013-11-07 10:21:00,57.7,56.0,30.16,West,270,0.0,0.7,94,0.00,,,0.00,pywws,2013-11-07 15:21:00,
2013-11-07 10:27:00,57.7,56.3,30.16,North,0,0.0,0.7,95,0.00,,,0.00,pywws,2013-11-07 15:27:00,
2013-11-07 10:33:00,57.7,56.3,30.15,North,0,0.7,2.2,95,0.00,,,0.00,pywws,2013-11-07 15:33:00,
2013-11-07 10:39:00,57.7,56.3,30.15,West,270,1.6,3.8,95,0.00,,,0.00,pywws,2013-11-07 15:39:00,
2013-11-07 10:44:00,57.7,56.6,30.15,West,270,1.6,4.5,96,0.00,,,0.00,pywws,2013-11-07 15:44:00,
2013-11-07 10:50:00,57.7,56.6,30.14,South,180,0.7,2.2,96,0.00,,,0.00,pywws,2013-11-07 15:50:00,
2013-11-07 10:55:00,57.6,56.4,30.13,North,0,0.7,1.6,96,0.00,,,0.00,pywws,2013-11-07 15:55:00,
2013-11-07 11:01:00,57.6,56.4,30.13,NW,315,1.6,2.2,96,0.00,,,0.00,pywws,2013-11-07 16:01:00,
2013-11-07 11:07:00,57.4,56.2,30.12,NE,45,0.7,1.6,96,0.00,,,0.00,pywws,2013-11-07 16:07:00,
2013-11-07 11:12:00,57.4,56.2,30.13,SW,225,1.6,3.1,96,0.00,,,0.00,pywws,2013-11-07 16:12:00,
2013-11-07 11:18:00,57.4,56.2,30.13,North,0,1.6,3.1,96,0.00,,,0.00,pywws,2013-11-07 16:18:00,
2013-11-07 11:23:00,57.4,56.2,30.13,North,0,1.6,3.1,96,0.00,,,0.00,pywws,2013-11-07 16:23:00,
2013-11-07 11:29:00,57.4,56.2,30.13,North,0,0.7,1.6,96,0.00,,,0.00,pywws,2013-11-07 16:29:00,
2013-11-07 11:35:00,57.4,56.2,30.12,West,270,2.2,4.5,96,0.00,,,0.00,pywws,2013-11-07 16:35:00,
2013-11-07 11:40:00,57.4,56.2,30.11,NNW,338,3.8,8.3,96,0.01,,,0.01,pywws,2013-11-07 16:40:00,
2013-11-07 11:46:00,57.4,56.2,30.10,North,0,1.6,3.1,96,0.01,,,0.01,pywws,2013-11-07 16:46:00,
2013-11-07 11:51:00,57.4,56.5,30.10,North,0,2.2,4.5,97,0.01,,,0.01,pywws,2013-11-07 16:51:00,
2013-11-07 11:57:00,57.4,56.5,30.09,SW,225,2.2,3.1,97,0.01,,,0.01,pywws,2013-11-07 16:57:00,
2013-11-07 12:03:00,57.4,56.5,30.09,North,0,1.6,2.2,97,0.01,,,0.01,pywws,2013-11-07 17:03:00,
2013-11-07 12:08:00,57.4,56.5,30.08,North,0,1.6,2.2,97,0.01,,,0.01,pywws,2013-11-07 17:08:00,
2013-11-07 12:14:00,57.6,56.7,30.07,NW,315,1.6,2.2,97,0.01,,,0.01,pywws,2013-11-07 17:14:00,
2013-11-07 12:19:00,57.7,56.9,30.06,NW,315,0.7,1.6,97,0.01,,,0.01,pywws,2013-11-07 17:19:00,
2013-11-07 12:25:00,57.9,57.1,30.06,NW,315,0.0,1.6,97,0.01,,,0.01,pywws,2013-11-07 17:25:00,
2013-11-07 12:31:00,58.1,57.3,30.07,NW,315,0.7,1.6,97,0.01,,,0.01,pywws,2013-11-07 17:31:00,
2013-11-07 12:36:00,58.1,57.3,30.07,ENE,68,0.7,2.2,97,0.01,,,0.01,pywws,2013-11-07 17:36:00,
2013-11-07 12:42:00,57.9,57.1,30.07,SW,225,2.2,6.0,97,0.00,,,0.01,pywws,2013-11-07 17:42:00,
2013-11-07 12:48:00,57.9,57.1,30.06,North,0,0.0,0.0,97,0.00,,,0.01,pywws,2013-11-07 17:48:00,
2013-11-07 12:54:00,57.9,57.1,30.06,North,0,0.7,2.2,97,0.00,,,0.01,pywws,2013-11-07 17:54:00,
2013-11-07 12:59:00,57.9,57.1,30.06,West,270,0.7,1.6,97,0.00,,,0.01,pywws,2013-11-07 17:59:00,
2013-11-07 13:04:00,57.9,56.8,30.07,NW,315,1.6,3.1,96,0.00,,,0.01,pywws,2013-11-07 18:04:00,
2013-11-07 13:10:00,57.7,56.6,30.08,NW,315,0.7,1.6,96,0.00,,,0.01,pywws,2013-11-07 18:10:00,
2013-11-07 13:15:00,57.6,56.4,30.07,West,270,0.7,1.6,96,0.00,,,0.01,pywws,2013-11-07 18:15:00,
2013-11-07 13:21:00,56.7,55.8,30.08,NE,45,3.8,5.4,97,0.01,,,0.02,pywws,2013-11-07 18:21:00,
2013-11-07 13:27:00,55.2,52.9,30.09,NE,45,3.1,4.5,92,0.01,,,0.02,pywws,2013-11-07 18:27:00,
2013-11-07 13:32:00,54.3,51.7,30.09,NE,45,2.2,3.8,91,0.01,,,0.02,pywws,2013-11-07 18:32:00,
2013-11-07 13:38:00,54.0,51.1,30.09,North,0,2.2,3.1,90,0.01,,,0.02,pywws,2013-11-07 18:38:00,
2013-11-07 13:43:00,53.6,50.4,30.10,North,0,2.2,3.1,89,0.01,,,0.02,pywws,2013-11-07 18:43:00,
2013-11-07 13:49:00,53.2,50.7,30.10,North,0,1.6,3.1,91,0.01,,,0.02,pywws,2013-11-07 18:49:00,
2013-11-07 13:55:00,53.1,50.8,30.09,NW,315,1.6,3.1,92,0.01,,,0.02,pywws,2013-11-07 18:55:00,
2013-11-07 14:00:00,52.9,50.6,30.09,North,0,0.7,1.6,92,0.01,,,0.02,pywws,2013-11-07 19:00:00,
2013-11-07 14:06:00,52.7,50.7,30.09,North,0,0.7,1.6,93,0.01,,,0.02,pywws,2013-11-07 19:06:00,
2013-11-07 14:11:00,52.5,50.6,30.08,NE,45,0.7,1.6,93,0.02,,,0.04,pywws,2013-11-07 19:11:00,
2013-11-07 14:17:00,52.3,50.7,30.09,NE,45,0.0,0.0,94,0.02,,,0.04,pywws,2013-11-07 19:17:00,
2013-11-07 14:23:00,52.3,50.7,30.09,NE,45,0.7,0.7,94,0.01,,,0.04,pywws,2013-11-07 19:23:00,
2013-11-07 14:28:00,52.0,50.6,30.09,NE,45,0.0,1.6,95,0.01,,,0.04,pywws,2013-11-07 19:28:00,
2013-11-07 14:34:00,51.8,50.4,30.09,North,0,0.7,1.6,95,0.02,,,0.05,pywws,2013-11-07 19:34:00,
2013-11-07 14:39:00,51.6,50.5,30.09,North,0,0.0,1.6,96,0.02,,,0.05,pywws,2013-11-07 19:39:00,
2013-11-07 14:45:00,51.4,50.1,30.10,North,0,0.7,2.2,95,0.02,,,0.05,pywws,2013-11-07 19:45:00,
2013-11-07 14:51:00,51.3,49.9,30.09,NE,45,1.6,2.2,95,0.02,,,0.05,pywws,2013-11-07 19:51:00,
2013-11-07 14:56:00,51.1,49.4,30.09,NE,45,2.2,3.1,94,0.02,,,0.05,pywws,2013-11-07 19:56:00,
2013-11-07 15:02:00,50.5,48.6,30.09,NW,315,2.2,4.5,93,0.02,,,0.05,pywws,2013-11-07 20:02:00,
2013-11-07 15:08:00,50.2,47.7,30.09,WNW,292,1.6,2.2,91,0.02,,,0.05,pywws,2013-11-07 20:08:00,
2013-11-07 15:14:00,50.0,47.8,30.10,North,0,1.6,2.2,92,0.01,,,0.05,pywws,2013-11-07 20:14:00,
2013-11-07 15:19:00,49.8,47.9,30.10,NE,45,1.6,2.2,93,0.01,,,0.05,pywws,2013-11-07 20:19:00,
2013-11-07 15:25:00,49.5,47.5,30.09,NE,45,1.6,2.2,93,0.01,,,0.05,pywws,2013-11-07 20:25:00,
2013-11-07 15:31:00,49.3,47.3,30.10,North,0,1.6,3.1,93,0.00,,,0.05,pywws,2013-11-07 20:31:00,
2013-11-07 15:36:00,49.3,47.6,30.10,North,0,1.6,3.1,94,0.00,,,0.05,pywws,2013-11-07 20:36:00,
2013-11-07 15:42:00,49.1,47.7,30.11,NNE,22,1.6,3.1,95,0.00,,,0.05,pywws,2013-11-07 20:42:00,
2013-11-07 15:48:00,48.6,47.2,30.11,North,0,1.6,2.2,95,0.00,,,0.05,pywws,2013-11-07 20:48:00,
2013-11-07 15:54:00,48.4,46.7,30.11,North,0,1.6,3.8,94,0.00,,,0.05,pywws,2013-11-07 20:54:00,
2013-11-07 15:59:00,48.2,46.6,30.11,North,0,0.7,1.6,94,0.00,,,0.05,pywws,2013-11-07 20:59:00,
2013-11-07 16:05:00,47.8,46.5,30.12,North,0,0.7,2.2,95,0.00,,,0.05,pywws,2013-11-07 21:05:00,
2013-11-07 16:11:00,47.8,46.2,30.12,North,0,0.7,2.2,94,0.00,,,0.05,pywws,2013-11-07 21:11:00,
2013-11-07 16:16:00,48.0,46.4,30.12,NE,45,1.6,2.2,94,0.00,,,0.05,pywws,2013-11-07 21:16:00,
2013-11-07 16:22:00,48.0,46.1,30.12,North,0,0.7,1.6,93,0.00,,,0.05,pywws,2013-11-07 21:22:00,
2013-11-07 16:28:00,48.0,45.8,30.13,North,0,3.8,5.4,92,0.00,,,0.05,pywws,2013-11-07 21:28:00,
2013-11-07 16:34:00,47.7,44.3,30.13,North,0,2.2,3.1,88,0.00,,,0.05,pywws,2013-11-07 21:34:00,
2013-11-07 16:40:00,47.5,43.5,30.14,NNE,22,1.6,2.2,86,0.00,,,0.05,pywws,2013-11-07 21:40:00,
2013-11-07 16:46:00,47.3,43.0,30.14,North,0,1.6,3.1,85,0.00,,,0.05,pywws,2013-11-07 21:46:00,
2013-11-07 16:51:00,46.9,42.7,30.14,North,0,2.2,3.1,85,0.00,,,0.05,pywws,2013-11-07 21:51:00,
2013-11-07 16:57:00,46.8,42.8,30.14,North,0,0.7,1.6,86,0.00,,,0.05,pywws,2013-11-07 21:57:00,
2013-11-07 17:03:00,46.8,42.5,30.15,NNE,22,1.6,2.2,85,0.00,,,0.05,pywws,2013-11-07 22:03:00,
2013-11-07 17:08:00,46.6,42.3,30.16,North,0,0.0,0.7,85,0.00,,,0.05,pywws,2013-11-07 22:08:00,
2013-11-07 17:14:00,46.6,42.3,30.16,NW,315,1.6,2.2,85,0.00,,,0.05,pywws,2013-11-07 22:14:00,
2013-11-07 17:19:00,46.6,42.0,30.16,North,0,2.2,3.8,84,0.00,,,0.05,pywws,2013-11-07 22:19:00,
2013-11-07 17:25:00,46.6,41.4,30.16,North,0,0.7,1.6,82,0.00,,,0.05,pywws,2013-11-07 22:25:00,
2013-11-07 17:31:00,46.6,40.7,30.17,North,0,1.6,3.1,80,0.00,,,0.05,pywws,2013-11-07 22:31:00,
2013-11-07 17:36:00,46.2,40.7,30.17,NNE,22,1.6,2.2,81,0.00,,,0.05,pywws,2013-11-07 22:36:00,
2013-11-07 17:42:00,46.0,40.2,30.18,NE,45,2.2,3.1,80,0.00,,,0.05,pywws,2013-11-07 22:42:00,
2013-11-07 17:48:00,45.9,39.7,30.18,North,0,0.7,2.2,79,0.00,,,0.05,pywws,2013-11-07 22:48:00,
2013-11-07 17:54:00,45.5,39.4,30.18,North,0,0.7,1.6,79,0.00,,,0.05,pywws,2013-11-07 22:54:00,
2013-11-07 17:59:00,45.3,39.2,30.18,NE,45,1.6,3.1,79,0.00,,,0.05,pywws,2013-11-07 22:59:00,
2013-11-07 18:05:00,45.1,38.7,30.19,North,0,2.2,3.8,78,0.00,,,0.05,pywws,2013-11-07 23:05:00,
2013-11-07 18:11:00,45.3,38.2,30.19,North,0,0.7,1.6,76,0.00,,,0.05,pywws,2013-11-07 23:11:00,
2013-11-07 18:16:00,45.1,38.7,30.19,North,0,0.7,1.6,78,0.00,,,0.05,pywws,2013-11-07 23:16:00,
2013-11-07 18:22:00,45.1,39.3,30.19,North,0,0.7,2.2,80,0.00,,,0.05,pywws,2013-11-07 23:22:00,
2013-11-07 18:28:00,45.0,39.5,30.20,North,0,1.6,3.8,81,0.00,,,0.05,pywws,2013-11-07 23:28:00,
2013-11-07 18:34:00,45.1,39.7,30.20,NE,45,3.8,4.5,81,0.00,,,0.05,pywws,2013-11-07 23:34:00,
2013-11-07 18:39:00,45.5,39.7,30.20,North,0,2.2,3.8,80,0.00,,,0.05,pywws,2013-11-07 23:39:00,
2013-11-07 18:45:00,45.3,38.9,30.21,NE,45,3.1,4.5,78,0.00,,,0.05,pywws,2013-11-07 23:45:00,
2013-11-07 18:51:00,45.3,38.2,30.21,North,0,2.2,3.8,76,0.00,,,0.05,pywws,2013-11-07 23:51:00,
2013-11-07 18:56:00,45.5,38.0,30.21,NE,45,3.8,6.0,75,0.00,,,0.05,pywws,2013-11-07 23:56:00,
2013-11-07 19:02:00,45.5,38.0,30.22,North,0,1.6,3.8,75,0.00,,,0.05,pywws,2013-11-08 00:02:00,
2013-11-07 19:08:00,45.0,37.9,30.22,North,0,2.2,5.4,76,0.00,,,0.05,pywws,2013-11-08 00:08:00,
2013-11-07 19:14:00,45.0,36.8,30.22,North,0,1.6,3.1,73,0.00,,,0.05,pywws,2013-11-08 00:14:00,
2013-11-07 19:19:00,44.8,37.3,30.22,East,90,0.7,2.2,75,0.00,,,0.05,pywws,2013-11-08 00:19:00,
2013-11-07 19:25:00,44.6,37.2,30.22,North,0,2.2,3.1,75,0.00,,,0.05,pywws,2013-11-08 00:25:00,
2013-11-07 19:31:00,44.4,37.3,30.22,North,0,0.7,1.6,76,0.00,,,0.05,pywws,2013-11-08 00:31:00,
2013-11-07 19:36:00,43.9,37.1,30.23,North,0,1.6,3.8,77,0.00,,,0.05,pywws,2013-11-08 00:36:00,
2013-11-07 19:42:00,43.9,36.8,30.23,West,270,1.6,3.1,76,0.00,,,0.05,pywws,2013-11-08 00:42:00,
2013-11-07 19:48:00,43.9,36.8,30.23,NE,45,1.6,3.1,76,0.00,,,0.05,pywws,2013-11-08 00:48:00,
2013-11-07 19:54:00,43.7,36.3,30.23,NE,45,0.7,1.6,75,0.00,,,0.05,pywws,2013-11-08 00:54:00,
2013-11-07 19:59:00,43.5,36.5,30.24,NE,45,2.2,3.8,76,0.00,,,0.05,pywws,2013-11-08 00:59:00,
2013-11-07 20:05:00,43.5,36.1,30.24,NE,45,0.7,2.2,75,0.00,,,0.05,pywws,2013-11-08 01:05:00,
2013-11-07 20:11:00,43.5,35.8,30.24,North,0,3.1,6.0,74,0.00,,,0.05,pywws,2013-11-08 01:11:00,
2013-11-07 20:16:00,43.7,34.9,30.25,NW,315,3.1,4.5,71,0.00,,,0.05,pywws,2013-11-08 01:16:00,
2013-11-07 20:22:00,43.7,33.5,30.25,North,0,2.2,3.8,67,0.00,,,0.05,pywws,2013-11-08 01:22:00,
2013-11-07 20:28:00,43.3,32.4,30.25,North,0,0.7,2.2,65,0.00,,,0.05,pywws,2013-11-08 01:28:00,
2013-11-07 20:34:00,43.3,32.8,30.25,North,0,1.6,3.1,66,0.00,,,0.05,pywws,2013-11-08 01:34:00,
2013-11-07 20:39:00,42.6,32.4,30.25,North,0,3.8,5.4,67,0.00,,,0.05,pywws,2013-11-08 01:39:00,
2013-11-07 20:45:00,42.8,31.1,30.25,North,0,3.1,3.8,63,0.00,,,0.05,pywws,2013-11-08 01:45:00,
2013-11-07 20:51:00,42.6,31.7,30.25,NW,315,6.9,12.1,65,0.00,,,0.05,pywws,2013-11-08 01:51:00,
2013-11-07 20:56:00,42.6,30.9,30.25,North,0,2.2,3.1,63,0.00,,,0.05,pywws,2013-11-08 01:56:00,
2013-11-07 21:02:00,42.4,31.1,30.26,North,0,1.6,2.2,64,0.00,,,0.05,pywws,2013-11-08 02:02:00,
2013-11-07 21:07:00,41.9,31.4,30.26,NE,45,2.2,3.1,66,0.00,,,0.05,pywws,2013-11-08 02:07:00,
2013-11-07 21:13:00,42.1,30.8,30.26,North,0,1.6,3.1,64,0.00,,,0.05,pywws,2013-11-08 02:13:00,
2013-11-07 21:19:00,42.1,31.2,30.26,North,0,1.6,3.1,65,0.00,,,0.05,pywws,2013-11-08 02:19:00,
2013-11-07 21:24:00,41.7,30.8,30.27,NW,315,2.2,3.1,65,0.00,,,0.05,pywws,2013-11-08 02:24:00,
2013-11-07 21:30:00,41.5,30.3,30.27,North,0,0.7,1.6,64,0.00,,,0.05,pywws,2013-11-08 02:30:00,
2013-11-07 21:36:00,41.7,30.5,30.27,NE,45,0.0,1.6,64,0.00,,,0.05,pywws,2013-11-08 02:36:00,
2013-11-07 21:42:00,41.2,30.7,30.26,NE,45,0.0,0.0,66,0.00,,,0.05,pywws,2013-11-08 02:42:00,
2013-11-07 21:47:00,41.0,30.5,30.26,NE,45,0.7,1.6,66,0.00,,,0.05,pywws,2013-11-08 02:47:00,
2013-11-07 21:53:00,40.5,30.7,30.25,NE,45,0.0,1.6,68,0.00,,,0.05,pywws,2013-11-08 02:53:00,
2013-11-07 21:59:00,40.1,30.8,30.25,North,0,0.0,1.6,69,0.00,,,0.05,pywws,2013-11-08 02:59:00,
2013-11-07 22:04:00,39.9,31.6,30.25,North,0,0.0,0.7,72,0.00,,,0.05,pywws,2013-11-08 03:04:00,
2013-11-07 22:10:00,39.6,31.6,30.25,North,0,0.0,0.0,73,0.00,,,0.05,pywws,2013-11-08 03:10:00,
2013-11-07 22:15:00,39.2,30.9,30.25,North,0,0.0,0.7,72,0.00,,,0.05,pywws,2013-11-08 03:15:00,
2013-11-07 22:21:00,39.2,30.9,30.25,North,0,0.0,0.0,72,0.00,,,0.05,pywws,2013-11-08 03:21:00,
2013-11-07 22:27:00,39.0,31.1,30.25,NE,45,0.0,0.7,73,0.00,,,0.05,pywws,2013-11-08 03:27:00,
2013-11-07 22:32:00,39.0,30.8,30.26,North,0,0.7,2.2,72,0.00,,,0.05,pywws,2013-11-08 03:32:00,
2013-11-07 22:38:00,39.2,29.9,30.26,North,0,0.7,1.6,69,0.00,,,0.05,pywws,2013-11-08 03:38:00,
2013-11-07 22:43:00,39.2,30.6,30.25,NE,45,0.7,1.6,71,0.00,,,0.05,pywws,2013-11-08 03:43:00,
2013-11-07 22:49:00,39.4,30.1,30.26,East,90,1.6,2.2,69,0.00,,,0.05,pywws,2013-11-08 03:49:00,
2013-11-07 22:55:00,39.4,30.1,30.26,NE,45,0.7,1.6,69,0.00,,,0.05,pywws,2013-11-08 03:55:00,
2013-11-07 23:00:00,39.2,30.3,30.26,NE,45,0.0,0.7,70,0.00,,,0.00,pywws,2013-11-08 04:00:00,
2013-11-07 23:06:00,39.2,30.3,30.26,NE,45,0.0,0.7,70,0.00,,,0.00,pywws,2013-11-08 04:06:00,
2013-11-07 23:12:00,39.2,30.3,30.26,South,180,0.0,1.6,70,0.00,,,0.00,pywws,2013-11-08 04:12:00,
2013-11-07 23:18:00,38.8,30.3,30.26,SE,135,1.6,2.2,71,0.00,,,0.00,pywws,2013-11-08 04:18:00,
2013-11-07 23:23:00,39.0,30.4,30.26,NE,45,0.0,0.0,71,0.00,,,0.00,pywws,2013-11-08 04:23:00,
2013-11-07 23:29:00,38.8,30.3,30.26,East,90,0.0,0.7,71,0.00,,,0.00,pywws,2013-11-08 04:29:00,
2013-11-07 23:35:00,38.5,30.3,30.26,NE,45,0.0,0.0,72,0.00,,,0.00,pywws,2013-11-08 04:35:00,
2013-11-07 23:40:00,38.5,30.6,30.26,NE,45,0.0,0.0,73,0.00,,,0.00,pywws,2013-11-08 04:40:00,
2013-11-07 23:46:00,38.3,31.1,30.26,NE,45,0.0,0.0,75,0.00,,,0.00,pywws,2013-11-08 04:46:00,
2013-11-07 23:51:00,38.1,30.9,30.27,NE,45,0.0,0.7,75,0.00,,,0.00,pywws,2013-11-08 04:51:00,
2013-11-07 23:57:00,37.9,31.1,30.27,NE,45,0.0,0.0,76,0.00,,,0.00,pywws,2013-11-08 04:57:00,